sensor_id;sensor_type;location;lat;lon;timestamp;temperature;humidity
13682;DHT22;6913;49.892;7.936;2022-10-03T00:01:08;9.00;99.90
13682;DHT22;6913;49.892;7.936;2022-10-03T00:03:42;9.10;99.90
13682;DHT22;6913;49.892;7.936;2022-10-03T00:06:14;9.10;99.90
13682;DHT22;6913;49.892;7.936;2022-10-03T00:09:02;9.30;99.90
13682;DHT22;6913;49.892;7.936;2022-10-03T00:11:42;9.50;99.90
13682;DHT22;6913;49.892;7.936;2022-10-03T00:14:17;9.80;99.90
13682;DHT22;6913;49.892;7.936;2022-10-03T00:16:51;9.50;99.90
13682;DHT22;6913;49.892;7.936;2022-10-03T00:19:26;9.60;99.90
13682;DHT22;6913;49.892;7.936;2022-10-03T00:22:07;10.10;99.90
13682;DHT22;6913;49.892;7.936;2022-10-03T00:24:47;9.60;99.90
13682;DHT22;6913;49.892;7.936;2022-10-03T00:27:26;9.80;99.90
13682;DHT22;6913;49.892;7.936;2022-10-03T00:30:10;9.70;99.90
13682;DHT22;6913;49.892;7.936;2022-10-03T00:32:58;9.70;99.90
13682;DHT22;6913;49.892;7.936;2022-10-03T00:35:47;9.80;99.90
13682;DHT22;6913;49.892;7.936;2022-10-03T00:41:26;9.70;99.90
13682;DHT22;6913;49.892;7.936;2022-10-03T00:47:22;9.80;99.90
13682;DHT22;6913;49.892;7.936;2022-10-03T00:50:28;9.90;99.90
13682;DHT22;6913;49.892;7.936;2022-10-03T00:56:12;9.80;99.90
13682;DHT22;6913;49.892;7.936;2022-10-03T00:58:58;9.80;99.90
13682;DHT22;6913;49.892;7.936;2022-10-03T01:01:34;9.80;99.90
13682;DHT22;6913;49.892;7.936;2022-10-03T01:04:29;9.90;99.90
13682;DHT22;6913;49.892;7.936;2022-10-03T01:07:18;9.90;99.90
13682;DHT22;6913;49.892;7.936;2022-10-03T01:09:59;10.00;99.90
13682;DHT22;6913;49.892;7.936;2022-10-03T01:12:47;9.90;99.90
13682;DHT22;6913;49.892;7.936;2022-10-03T01:15:27;10.00;99.90
13682;DHT22;6913;49.892;7.936;2022-10-03T01:18:13;10.00;99.90
13682;DHT22;6913;49.892;7.936;2022-10-03T01:20:50;10.00;99.90
13682;DHT22;6913;49.892;7.936;2022-10-03T01:26:48;9.80;99.90
13682;DHT22;6913;49.892;7.936;2022-10-03T01:29:22;9.70;99.90
13682;DHT22;6913;49.892;7.936;2022-10-03T01:32:13;10.00;99.90
13682;DHT22;6913;49.892;7.936;2022-10-03T01:34:46;9.60;99.90
13682;DHT22;6913;49.892;7.936;2022-10-03T01:37:20;9.60;99.90
13682;DHT22;6913;49.892;7.936;2022-10-03T01:39:54;9.60;99.90
13682;DHT22;6913;49.892;7.936;2022-10-03T01:42:34;9.60;99.90
13682;DHT22;6913;49.892;7.936;2022-10-03T01:45:14;9.50;99.90
13682;DHT22;6913;49.892;7.936;2022-10-03T01:47:48;9.50;99.90
13682;DHT22;6913;49.892;7.936;2022-10-03T01:50:22;9.50;99.90
13682;DHT22;6913;49.892;7.936;2022-10-03T01:52:56;9.40;99.90
13682;DHT22;6913;49.892;7.936;2022-10-03T01:55:34;9.50;99.90
13682;DHT22;6913;49.892;7.936;2022-10-03T01:58:08;9.50;99.90
13682;DHT22;6913;49.892;7.936;2022-10-03T02:00:46;9.30;99.90
13682;DHT22;6913;49.892;7.936;2022-10-03T02:03:20;9.30;99.90
13682;DHT22;6913;49.892;7.936;2022-10-03T02:05:56;9.30;99.90
13682;DHT22;6913;49.892;7.936;2022-10-03T02:08:33;9.30;99.90
13682;DHT22;6913;49.892;7.936;2022-10-03T02:11:05;9.30;99.90
13682;DHT22;6913;49.892;7.936;2022-10-03T02:13:41;9.50;99.90
13682;DHT22;6913;49.892;7.936;2022-10-03T02:16:17;9.00;99.90
13682;DHT22;6913;49.892;7.936;2022-10-03T02:18:49;9.00;99.90
13682;DHT22;6913;49.892;7.936;2022-10-03T02:21:20;8.90;99.90
13682;DHT22;6913;49.892;7.936;2022-10-03T02:23:49;9.20;99.90
13682;DHT22;6913;49.892;7.936;2022-10-03T02:26:48;9.40;99.90
13682;DHT22;6913;49.892;7.936;2022-10-03T02:29:45;8.90;99.90
13682;DHT22;6913;49.892;7.936;2022-10-03T02:32:48;8.80;99.90
13682;DHT22;6913;49.892;7.936;2022-10-03T02:38:24;8.70;99.90
13682;DHT22;6913;49.892;7.936;2022-10-03T02:41:11;8.60;99.90
13682;DHT22;6913;49.892;7.936;2022-10-03T02:50:16;8.50;99.90
13682;DHT22;6913;49.892;7.936;2022-10-03T02:56:44;8.40;99.90
13682;DHT22;6913;49.892;7.936;2022-10-03T03:02:32;8.30;99.90
13682;DHT22;6913;49.892;7.936;2022-10-03T03:05:22;8.20;99.90
13682;DHT22;6913;49.892;7.936;2022-10-03T03:08:08;8.20;99.90
13682;DHT22;6913;49.892;7.936;2022-10-03T03:11:03;8.10;99.90
13682;DHT22;6913;49.892;7.936;2022-10-03T03:17:00;8.00;99.90
13682;DHT22;6913;49.892;7.936;2022-10-03T03:19:45;7.90;99.90
13682;DHT22;6913;49.892;7.936;2022-10-03T03:22:32;7.80;99.90
13682;DHT22;6913;49.892;7.936;2022-10-03T03:25:17;7.90;99.90
13682;DHT22;6913;49.892;7.936;2022-10-03T03:27:54;7.80;99.90
13682;DHT22;6913;49.892;7.936;2022-10-03T03:30:31;7.80;99.90
13682;DHT22;6913;49.892;7.936;2022-10-03T03:33:09;7.80;99.90
13682;DHT22;6913;49.892;7.936;2022-10-03T03:35:46;7.80;99.90
13682;DHT22;6913;49.892;7.936;2022-10-03T03:38:26;7.70;99.90
13682;DHT22;6913;49.892;7.936;2022-10-03T03:41:06;7.70;99.90
13682;DHT22;6913;49.892;7.936;2022-10-03T03:43:51;7.60;99.90
13682;DHT22;6913;49.892;7.936;2022-10-03T03:46:32;7.60;99.90
13682;DHT22;6913;49.892;7.936;2022-10-03T03:49:17;7.30;99.90
13682;DHT22;6913;49.892;7.936;2022-10-03T03:51:55;7.20;99.90
13682;DHT22;6913;49.892;7.936;2022-10-03T03:54:40;7.30;99.90
13682;DHT22;6913;49.892;7.936;2022-10-03T03:57:21;7.30;99.90
13682;DHT22;6913;49.892;7.936;2022-10-03T04:00:08;7.10;99.90
13682;DHT22;6913;49.892;7.936;2022-10-03T04:03:05;7.20;99.90
13682;DHT22;6913;49.892;7.936;2022-10-03T04:05:52;7.20;99.90
13682;DHT22;6913;49.892;7.936;2022-10-03T04:08:32;7.20;99.90
13682;DHT22;6913;49.892;7.936;2022-10-03T04:11:19;7.20;99.90
13682;DHT22;6913;49.892;7.936;2022-10-03T04:14:01;7.20;99.90
13682;DHT22;6913;49.892;7.936;2022-10-03T04:16:43;7.10;99.90
13682;DHT22;6913;49.892;7.936;2022-10-03T04:19:41;7.00;99.90
13682;DHT22;6913;49.892;7.936;2022-10-03T04:22:35;6.90;99.90
13682;DHT22;6913;49.892;7.936;2022-10-03T04:25:23;7.10;99.90
13682;DHT22;6913;49.892;7.936;2022-10-03T04:31:03;7.30;99.90
13682;DHT22;6913;49.892;7.936;2022-10-03T04:33:38;7.40;99.90
13682;DHT22;6913;49.892;7.936;2022-10-03T04:36:42;7.10;99.90
13682;DHT22;6913;49.892;7.936;2022-10-03T04:39:22;7.20;99.90
13682;DHT22;6913;49.892;7.936;2022-10-03T04:41:54;7.20;99.90
13682;DHT22;6913;49.892;7.936;2022-10-03T04:44:42;7.30;99.90
13682;DHT22;6913;49.892;7.936;2022-10-03T04:47:17;7.20;99.90
13682;DHT22;6913;49.892;7.936;2022-10-03T04:49:50;7.10;99.90
13682;DHT22;6913;49.892;7.936;2022-10-03T04:52:26;7.20;99.90
13682;DHT22;6913;49.892;7.936;2022-10-03T04:55:00;7.30;99.90
13682;DHT22;6913;49.892;7.936;2022-10-03T04:57:34;7.30;99.90
13682;DHT22;6913;49.892;7.936;2022-10-03T05:00:20;7.40;99.90
13682;DHT22;6913;49.892;7.936;2022-10-03T05:02:54;7.30;99.90
13682;DHT22;6913;49.892;7.936;2022-10-03T05:05:39;7.40;99.90
13682;DHT22;6913;49.892;7.936;2022-10-03T05:11:03;7.50;99.90
13682;DHT22;6913;49.892;7.936;2022-10-03T05:13:41;7.40;99.90
13682;DHT22;6913;49.892;7.936;2022-10-03T05:16:22;7.40;99.90
13682;DHT22;6913;49.892;7.936;2022-10-03T05:18:54;7.30;99.90
13682;DHT22;6913;49.892;7.936;2022-10-03T05:21:30;7.30;99.90
13682;DHT22;6913;49.892;7.936;2022-10-03T05:24:02;7.30;99.90
13682;DHT22;6913;49.892;7.936;2022-10-03T05:26:40;7.40;99.90
13682;DHT22;6913;49.892;7.936;2022-10-03T05:29:15;7.50;99.90
13682;DHT22;6913;49.892;7.936;2022-10-03T05:31:50;7.70;99.90
13682;DHT22;6913;49.892;7.936;2022-10-03T05:34:31;7.70;99.90
13682;DHT22;6913;49.892;7.936;2022-10-03T05:37:30;8.60;99.90
13682;DHT22;6913;49.892;7.936;2022-10-03T05:40:02;7.90;99.90
13682;DHT22;6913;49.892;7.936;2022-10-03T05:42:43;7.90;99.90
13682;DHT22;6913;49.892;7.936;2022-10-03T05:45:24;7.90;99.90
13682;DHT22;6913;49.892;7.936;2022-10-03T05:48:11;7.90;99.90
13682;DHT22;6913;49.892;7.936;2022-10-03T05:54:05;8.00;99.90
13682;DHT22;6913;49.892;7.936;2022-10-03T05:56:50;8.00;99.90
13682;DHT22;6913;49.892;7.936;2022-10-03T05:59:42;8.40;99.90
13682;DHT22;6913;49.892;7.936;2022-10-03T06:02:53;7.90;99.90
13682;DHT22;6913;49.892;7.936;2022-10-03T06:05:29;7.90;99.90
13682;DHT22;6913;49.892;7.936;2022-10-03T06:10:54;8.10;99.90
13682;DHT22;6913;49.892;7.936;2022-10-03T06:13:37;8.10;99.90
13682;DHT22;6913;49.892;7.936;2022-10-03T06:16:19;8.20;99.90
13682;DHT22;6913;49.892;7.936;2022-10-03T06:19:01;8.30;99.90
13682;DHT22;6913;49.892;7.936;2022-10-03T06:21:59;8.30;99.90
13682;DHT22;6913;49.892;7.936;2022-10-03T06:27:57;8.40;99.90
13682;DHT22;6913;49.892;7.936;2022-10-03T06:37:06;8.60;99.90
13682;DHT22;6913;49.892;7.936;2022-10-03T06:40:23;8.70;99.90
13682;DHT22;6913;49.892;7.936;2022-10-03T06:43:07;8.80;99.90
13682;DHT22;6913;49.892;7.936;2022-10-03T06:46:05;8.80;99.90
13682;DHT22;6913;49.892;7.936;2022-10-03T06:49:18;8.90;99.90
13682;DHT22;6913;49.892;7.936;2022-10-03T06:58:41;9.00;99.90
13682;DHT22;6913;49.892;7.936;2022-10-03T07:01:42;9.10;99.90
13682;DHT22;6913;49.892;7.936;2022-10-03T07:04:34;9.20;99.90
13682;DHT22;6913;49.892;7.936;2022-10-03T07:07:26;9.20;99.90
13682;DHT22;6913;49.892;7.936;2022-10-03T07:10:17;9.30;99.90
13682;DHT22;6913;49.892;7.936;2022-10-03T07:16:04;9.40;99.90
13682;DHT22;6913;49.892;7.936;2022-10-03T07:19:03;9.50;99.90
13682;DHT22;6913;49.892;7.936;2022-10-03T07:25:21;9.90;99.90
13682;DHT22;6913;49.892;7.936;2022-10-03T07:28:08;10.10;99.90
13682;DHT22;6913;49.892;7.936;2022-10-03T07:30:56;10.10;99.90
13682;DHT22;6913;49.892;7.936;2022-10-03T07:34:06;10.30;99.90
13682;DHT22;6913;49.892;7.936;2022-10-03T07:36:55;10.50;99.90
13682;DHT22;6913;49.892;7.936;2022-10-03T07:40:14;10.50;99.90
13682;DHT22;6913;49.892;7.936;2022-10-03T07:43:31;10.60;99.90
13682;DHT22;6913;49.892;7.936;2022-10-03T07:49:21;10.60;99.90
13682;DHT22;6913;49.892;7.936;2022-10-03T07:52:10;10.40;99.90
13682;DHT22;6913;49.892;7.936;2022-10-03T07:54:52;10.60;99.90
13682;DHT22;6913;49.892;7.936;2022-10-03T08:00:43;11.00;99.90
13682;DHT22;6913;49.892;7.936;2022-10-03T08:03:49;11.20;99.90
13682;DHT22;6913;49.892;7.936;2022-10-03T08:06:25;11.50;99.90
13682;DHT22;6913;49.892;7.936;2022-10-03T08:09:29;11.60;99.90
13682;DHT22;6913;49.892;7.936;2022-10-03T08:12:32;11.70;99.90
13682;DHT22;6913;49.892;7.936;2022-10-03T08:15:09;11.80;99.90
13682;DHT22;6913;49.892;7.936;2022-10-03T08:18:16;11.70;99.90
13682;DHT22;6913;49.892;7.936;2022-10-03T08:20:51;11.50;99.90
13682;DHT22;6913;49.892;7.936;2022-10-03T08:26:19;11.50;99.90
13682;DHT22;6913;49.892;7.936;2022-10-03T08:32:34;11.90;99.90
13682;DHT22;6913;49.892;7.936;2022-10-03T08:35:35;12.50;99.90
13682;DHT22;6913;49.892;7.936;2022-10-03T08:38:39;13.00;99.90
13682;DHT22;6913;49.892;7.936;2022-10-03T08:48:05;13.40;99.90
13682;DHT22;6913;49.892;7.936;2022-10-03T08:54:01;13.10;99.90
13682;DHT22;6913;49.892;7.936;2022-10-03T08:56:45;13.40;99.90
13682;DHT22;6913;49.892;7.936;2022-10-03T09:17:15;14.70;99.90
13682;DHT22;6913;49.892;7.936;2022-10-03T09:20:10;14.90;99.90
13682;DHT22;6913;49.892;7.936;2022-10-03T09:23:13;15.00;99.90
13682;DHT22;6913;49.892;7.936;2022-10-03T09:26:07;15.20;99.90
13682;DHT22;6913;49.892;7.936;2022-10-03T09:29:26;15.40;99.90
13682;DHT22;6913;49.892;7.936;2022-10-03T09:32:29;15.50;99.90
13682;DHT22;6913;49.892;7.936;2022-10-03T09:35:20;15.50;99.90
13682;DHT22;6913;49.892;7.936;2022-10-03T09:44:18;15.70;99.90
13682;DHT22;6913;49.892;7.936;2022-10-03T09:47:17;15.80;99.90
13682;DHT22;6913;49.892;7.936;2022-10-03T09:53:23;16.20;99.90
13682;DHT22;6913;49.892;7.936;2022-10-03T09:56:15;16.50;99.90
13682;DHT22;6913;49.892;7.936;2022-10-03T09:59:03;16.70;99.90
13682;DHT22;6913;49.892;7.936;2022-10-03T10:01:39;16.50;99.90
13682;DHT22;6913;49.892;7.936;2022-10-03T10:04:41;16.50;99.90
13682;DHT22;6913;49.892;7.936;2022-10-03T10:08:01;16.70;99.90
13682;DHT22;6913;49.892;7.936;2022-10-03T10:10:56;16.70;99.90
13682;DHT22;6913;49.892;7.936;2022-10-03T10:13:59;16.80;99.90
13682;DHT22;6913;49.892;7.936;2022-10-03T10:19:51;17.00;99.90
13682;DHT22;6913;49.892;7.936;2022-10-03T10:37:51;17.50;99.90
13682;DHT22;6913;49.892;7.936;2022-10-03T10:44:03;17.30;99.90
13682;DHT22;6913;49.892;7.936;2022-10-03T10:47:10;17.80;99.90
13682;DHT22;6913;49.892;7.936;2022-10-03T10:50:16;17.90;99.90
13682;DHT22;6913;49.892;7.936;2022-10-03T10:56:26;18.30;99.90
13682;DHT22;6913;49.892;7.936;2022-10-03T11:05:45;17.60;99.90
13682;DHT22;6913;49.892;7.936;2022-10-03T11:08:56;17.80;99.90
13682;DHT22;6913;49.892;7.936;2022-10-03T11:21:03;18.10;99.90
13682;DHT22;6913;49.892;7.936;2022-10-03T11:24:01;17.90;99.90
13682;DHT22;6913;49.892;7.936;2022-10-03T11:36:25;18.00;99.90
13682;DHT22;6913;49.892;7.936;2022-10-03T11:39:03;18.20;99.90
13682;DHT22;6913;49.892;7.936;2022-10-03T11:41:39;17.90;99.90
13682;DHT22;6913;49.892;7.936;2022-10-03T11:44:19;18.40;99.90
13682;DHT22;6913;49.892;7.936;2022-10-03T11:47:01;19.00;99.90
13682;DHT22;6913;49.892;7.936;2022-10-03T11:52:27;18.90;99.90
13682;DHT22;6913;49.892;7.936;2022-10-03T11:55:06;19.10;99.90
13682;DHT22;6913;49.892;7.936;2022-10-03T11:57:43;18.90;99.90
13682;DHT22;6913;49.892;7.936;2022-10-03T12:00:15;18.70;99.90
13682;DHT22;6913;49.892;7.936;2022-10-03T12:03:02;18.60;99.90
13682;DHT22;6913;49.892;7.936;2022-10-03T12:05:51;18.70;99.90
13682;DHT22;6913;49.892;7.936;2022-10-03T12:08:41;18.20;99.90
13682;DHT22;6913;49.892;7.936;2022-10-03T12:11:23;17.90;99.90
13682;DHT22;6913;49.892;7.936;2022-10-03T12:14:17;17.80;99.90
13682;DHT22;6913;49.892;7.936;2022-10-03T12:17:04;17.60;99.90
13682;DHT22;6913;49.892;7.936;2022-10-03T12:19:37;17.40;99.90
13682;DHT22;6913;49.892;7.936;2022-10-03T12:22:17;17.60;99.90
13682;DHT22;6913;49.892;7.936;2022-10-03T12:24:50;17.40;99.90
13682;DHT22;6913;49.892;7.936;2022-10-03T12:27:35;17.40;99.90
13682;DHT22;6913;49.892;7.936;2022-10-03T12:30:12;17.40;99.90
13682;DHT22;6913;49.892;7.936;2022-10-03T12:32:49;17.30;99.90
13682;DHT22;6913;49.892;7.936;2022-10-03T12:35:34;17.40;99.90
13682;DHT22;6913;49.892;7.936;2022-10-03T12:38:24;17.20;99.90
13682;DHT22;6913;49.892;7.936;2022-10-03T12:41:08;17.20;99.90
13682;DHT22;6913;49.892;7.936;2022-10-03T12:43:51;17.40;99.90
13682;DHT22;6913;49.892;7.936;2022-10-03T12:46:29;17.40;99.90
13682;DHT22;6913;49.892;7.936;2022-10-03T12:49:02;17.70;99.90
13682;DHT22;6913;49.892;7.936;2022-10-03T12:51:41;17.40;99.90
13682;DHT22;6913;49.892;7.936;2022-10-03T12:54:27;17.40;99.90
13682;DHT22;6913;49.892;7.936;2022-10-03T12:57:18;17.60;99.90
13682;DHT22;6913;49.892;7.936;2022-10-03T12:59:53;17.40;99.90
13682;DHT22;6913;49.892;7.936;2022-10-03T13:02:27;17.60;99.90
13682;DHT22;6913;49.892;7.936;2022-10-03T13:05:28;17.70;99.90
13682;DHT22;6913;49.892;7.936;2022-10-03T13:07:58;17.80;99.90
13682;DHT22;6913;49.892;7.936;2022-10-03T13:10:35;17.70;99.90
13682;DHT22;6913;49.892;7.936;2022-10-03T13:13:21;17.60;99.90
13682;DHT22;6913;49.892;7.936;2022-10-03T13:16:09;17.60;99.90
13682;DHT22;6913;49.892;7.936;2022-10-03T13:18:43;17.40;99.90
13682;DHT22;6913;49.892;7.936;2022-10-03T13:21:18;17.80;99.90
13682;DHT22;6913;49.892;7.936;2022-10-03T13:23:49;17.70;99.90
13682;DHT22;6913;49.892;7.936;2022-10-03T13:26:23;17.40;99.90
13682;DHT22;6913;49.892;7.936;2022-10-03T13:29:25;17.50;99.90
13682;DHT22;6913;49.892;7.936;2022-10-03T13:32:16;17.80;99.90
13682;DHT22;6913;49.892;7.936;2022-10-03T13:35:01;17.80;99.90
13682;DHT22;6913;49.892;7.936;2022-10-03T13:41:04;17.70;99.90
13682;DHT22;6913;49.892;7.936;2022-10-03T13:43:37;17.60;99.90
13682;DHT22;6913;49.892;7.936;2022-10-03T13:46:12;17.20;99.90
13682;DHT22;6913;49.892;7.936;2022-10-03T13:48:43;17.30;99.90
13682;DHT22;6913;49.892;7.936;2022-10-03T13:51:21;17.50;99.90
13682;DHT22;6913;49.892;7.936;2022-10-03T13:53:56;17.60;99.90
13682;DHT22;6913;49.892;7.936;2022-10-03T13:56:40;17.50;99.90
13682;DHT22;6913;49.892;7.936;2022-10-03T13:59:22;17.20;99.90
13682;DHT22;6913;49.892;7.936;2022-10-03T14:01:56;17.40;99.90
13682;DHT22;6913;49.892;7.936;2022-10-03T14:04:50;17.80;99.90
13682;DHT22;6913;49.892;7.936;2022-10-03T14:07:31;17.20;99.90
13682;DHT22;6913;49.892;7.936;2022-10-03T14:10:14;17.00;99.90
13682;DHT22;6913;49.892;7.936;2022-10-03T14:12:54;17.00;99.90
13682;DHT22;6913;49.892;7.936;2022-10-03T14:15:36;16.80;99.90
13682;DHT22;6913;49.892;7.936;2022-10-03T14:18:15;16.90;99.90
13682;DHT22;6913;49.892;7.936;2022-10-03T14:21:13;16.80;99.90
13682;DHT22;6913;49.892;7.936;2022-10-03T14:23:47;16.90;99.90
13682;DHT22;6913;49.892;7.936;2022-10-03T14:26:20;16.70;99.90
13682;DHT22;6913;49.892;7.936;2022-10-03T14:28:55;16.80;99.90
13682;DHT22;6913;49.892;7.936;2022-10-03T14:31:31;16.70;99.90
13682;DHT22;6913;49.892;7.936;2022-10-03T14:34:07;16.60;99.90
13682;DHT22;6913;49.892;7.936;2022-10-03T14:36:40;16.50;99.90
13682;DHT22;6913;49.892;7.936;2022-10-03T14:39:24;16.40;99.90
13682;DHT22;6913;49.892;7.936;2022-10-03T14:42:24;16.40;99.90
13682;DHT22;6913;49.892;7.936;2022-10-03T14:44:55;16.40;99.90
13682;DHT22;6913;49.892;7.936;2022-10-03T14:47:24;16.40;99.90
13682;DHT22;6913;49.892;7.936;2022-10-03T14:49:54;16.40;99.90
13682;DHT22;6913;49.892;7.936;2022-10-03T14:52:27;16.50;99.90
13682;DHT22;6913;49.892;7.936;2022-10-03T14:54:58;16.40;99.90
13682;DHT22;6913;49.892;7.936;2022-10-03T14:57:31;16.30;99.90
13682;DHT22;6913;49.892;7.936;2022-10-03T15:00:02;16.40;99.90
13682;DHT22;6913;49.892;7.936;2022-10-03T15:02:33;16.50;99.90
13682;DHT22;6913;49.892;7.936;2022-10-03T15:05:06;16.60;99.90
13682;DHT22;6913;49.892;7.936;2022-10-03T15:07:36;16.50;99.90
13682;DHT22;6913;49.892;7.936;2022-10-03T15:10:06;16.50;99.90
13682;DHT22;6913;49.892;7.936;2022-10-03T15:12:36;16.30;99.90
13682;DHT22;6913;49.892;7.936;2022-10-03T15:15:08;16.60;99.90
13682;DHT22;6913;49.892;7.936;2022-10-03T15:17:45;16.40;99.90
13682;DHT22;6913;49.892;7.936;2022-10-03T15:20:14;16.50;99.90
13682;DHT22;6913;49.892;7.936;2022-10-03T15:22:47;16.30;99.90
13682;DHT22;6913;49.892;7.936;2022-10-03T15:25:17;16.20;99.90
13682;DHT22;6913;49.892;7.936;2022-10-03T15:27:48;16.20;99.90
13682;DHT22;6913;49.892;7.936;2022-10-03T15:30:21;16.20;99.90
13682;DHT22;6913;49.892;7.936;2022-10-03T15:32:50;16.20;99.90
13682;DHT22;6913;49.892;7.936;2022-10-03T15:35:20;16.10;99.90
13682;DHT22;6913;49.892;7.936;2022-10-03T15:37:50;16.20;99.90
13682;DHT22;6913;49.892;7.936;2022-10-03T15:40:22;16.10;99.90
13682;DHT22;6913;49.892;7.936;2022-10-03T15:43:02;16.10;99.90
13682;DHT22;6913;49.892;7.936;2022-10-03T15:45:31;16.10;99.90
13682;DHT22;6913;49.892;7.936;2022-10-03T15:48:03;16.00;99.90
13682;DHT22;6913;49.892;7.936;2022-10-03T15:50:33;16.30;99.90
13682;DHT22;6913;49.892;7.936;2022-10-03T15:53:07;16.30;99.90
13682;DHT22;6913;49.892;7.936;2022-10-03T15:55:38;16.30;99.90
13682;DHT22;6913;49.892;7.936;2022-10-03T15:58:13;16.10;99.90
13682;DHT22;6913;49.892;7.936;2022-10-03T16:00:44;16.00;99.90
13682;DHT22;6913;49.892;7.936;2022-10-03T16:03:15;16.00;99.90
13682;DHT22;6913;49.892;7.936;2022-10-03T16:05:52;16.00;99.90
13682;DHT22;6913;49.892;7.936;2022-10-03T16:08:26;16.00;99.90
13682;DHT22;6913;49.892;7.936;2022-10-03T16:11:01;15.80;99.90
13682;DHT22;6913;49.892;7.936;2022-10-03T16:13:34;15.70;99.90
13682;DHT22;6913;49.892;7.936;2022-10-03T16:16:16;16.00;99.90
13682;DHT22;6913;49.892;7.936;2022-10-03T16:18:56;15.80;99.90
13682;DHT22;6913;49.892;7.936;2022-10-03T16:21:44;15.60;99.90
13682;DHT22;6913;49.892;7.936;2022-10-03T16:24:20;15.60;99.90
13682;DHT22;6913;49.892;7.936;2022-10-03T16:26:51;15.40;99.90
13682;DHT22;6913;49.892;7.936;2022-10-03T16:29:19;15.20;99.90
13682;DHT22;6913;49.892;7.936;2022-10-03T16:31:51;15.10;99.90
13682;DHT22;6913;49.892;7.936;2022-10-03T16:34:23;15.30;99.90
13682;DHT22;6913;49.892;7.936;2022-10-03T16:36:51;15.40;99.90
13682;DHT22;6913;49.892;7.936;2022-10-03T16:39:22;15.40;99.90
13682;DHT22;6913;49.892;7.936;2022-10-03T16:41:51;15.40;99.90
13682;DHT22;6913;49.892;7.936;2022-10-03T16:44:23;15.50;99.90
13682;DHT22;6913;49.892;7.936;2022-10-03T16:46:53;15.50;99.90
13682;DHT22;6913;49.892;7.936;2022-10-03T16:49:34;15.50;99.90
13682;DHT22;6913;49.892;7.936;2022-10-03T16:52:22;15.30;99.90
13682;DHT22;6913;49.892;7.936;2022-10-03T16:54:57;15.30;99.90
13682;DHT22;6913;49.892;7.936;2022-10-03T16:57:30;15.30;99.90
13682;DHT22;6913;49.892;7.936;2022-10-03T16:59:59;15.20;99.90
13682;DHT22;6913;49.892;7.936;2022-10-03T17:02:31;15.20;99.90
13682;DHT22;6913;49.892;7.936;2022-10-03T17:05:02;15.20;99.90
13682;DHT22;6913;49.892;7.936;2022-10-03T17:07:37;15.00;99.90
13682;DHT22;6913;49.892;7.936;2022-10-03T17:10:20;15.00;99.90
13682;DHT22;6913;49.892;7.936;2022-10-03T17:12:50;14.80;99.90
13682;DHT22;6913;49.892;7.936;2022-10-03T17:15:20;14.70;99.90
13682;DHT22;6913;49.892;7.936;2022-10-03T17:17:52;14.70;99.90
13682;DHT22;6913;49.892;7.936;2022-10-03T17:20:36;14.60;99.90
13682;DHT22;6913;49.892;7.936;2022-10-03T17:23:10;14.70;99.90
13682;DHT22;6913;49.892;7.936;2022-10-03T17:25:46;14.80;99.90
13682;DHT22;6913;49.892;7.936;2022-10-03T17:28:22;14.30;99.90
13682;DHT22;6913;49.892;7.936;2022-10-03T17:30:55;14.20;99.90
13682;DHT22;6913;49.892;7.936;2022-10-03T17:33:33;14.20;99.90
13682;DHT22;6913;49.892;7.936;2022-10-03T17:36:17;13.90;99.90
13682;DHT22;6913;49.892;7.936;2022-10-03T17:38:51;13.80;99.90
13682;DHT22;6913;49.892;7.936;2022-10-03T17:41:22;13.70;99.90
13682;DHT22;6913;49.892;7.936;2022-10-03T17:43:57;13.60;99.90
13682;DHT22;6913;49.892;7.936;2022-10-03T17:46:28;13.50;99.90
13682;DHT22;6913;49.892;7.936;2022-10-03T17:49:06;13.30;99.90
13682;DHT22;6913;49.892;7.936;2022-10-03T17:51:43;13.20;99.90
13682;DHT22;6913;49.892;7.936;2022-10-03T17:54:13;13.20;99.90
13682;DHT22;6913;49.892;7.936;2022-10-03T17:56:44;13.20;99.90
13682;DHT22;6913;49.892;7.936;2022-10-03T17:59:19;13.60;99.90
13682;DHT22;6913;49.892;7.936;2022-10-03T18:01:50;13.20;99.90
13682;DHT22;6913;49.892;7.936;2022-10-03T18:04:25;12.80;99.90
13682;DHT22;6913;49.892;7.936;2022-10-03T18:06:55;12.70;99.90
13682;DHT22;6913;49.892;7.936;2022-10-03T18:09:30;12.40;99.90
13682;DHT22;6913;49.892;7.936;2022-10-03T18:12:19;12.30;99.90
13682;DHT22;6913;49.892;7.936;2022-10-03T18:15:20;12.30;99.90
13682;DHT22;6913;49.892;7.936;2022-10-03T18:17:59;12.20;99.90
13682;DHT22;6913;49.892;7.936;2022-10-03T18:20:41;12.20;99.90
13682;DHT22;6913;49.892;7.936;2022-10-03T18:23:19;12.20;99.90
13682;DHT22;6913;49.892;7.936;2022-10-03T18:25:51;12.20;99.90
13682;DHT22;6913;49.892;7.936;2022-10-03T18:28:27;12.10;99.90
13682;DHT22;6913;49.892;7.936;2022-10-03T18:30:58;12.00;99.90
13682;DHT22;6913;49.892;7.936;2022-10-03T18:33:29;11.90;99.90
13682;DHT22;6913;49.892;7.936;2022-10-03T18:36:05;11.80;99.90
13682;DHT22;6913;49.892;7.936;2022-10-03T18:38:34;11.80;99.90
13682;DHT22;6913;49.892;7.936;2022-10-03T18:41:03;11.70;99.90
13682;DHT22;6913;49.892;7.936;2022-10-03T18:43:33;11.60;99.90
13682;DHT22;6913;49.892;7.936;2022-10-03T18:46:07;11.50;99.90
13682;DHT22;6913;49.892;7.936;2022-10-03T18:51:12;11.30;99.90
13682;DHT22;6913;49.892;7.936;2022-10-03T18:53:44;11.20;99.90
13682;DHT22;6913;49.892;7.936;2022-10-03T18:56:18;11.20;99.90
13682;DHT22;6913;49.892;7.936;2022-10-03T19:01:46;11.60;99.90
13682;DHT22;6913;49.892;7.936;2022-10-03T19:04:19;11.10;99.90
13682;DHT22;6913;49.892;7.936;2022-10-03T19:06:50;11.10;99.90
13682;DHT22;6913;49.892;7.936;2022-10-03T19:09:22;11.90;99.90
13682;DHT22;6913;49.892;7.936;2022-10-03T19:11:55;10.90;99.90
13682;DHT22;6913;49.892;7.936;2022-10-03T19:14:28;11.10;99.90
13682;DHT22;6913;49.892;7.936;2022-10-03T19:17:19;10.60;99.90
13682;DHT22;6913;49.892;7.936;2022-10-03T19:19:52;10.60;99.90
13682;DHT22;6913;49.892;7.936;2022-10-03T19:22:29;10.60;99.90
13682;DHT22;6913;49.892;7.936;2022-10-03T19:24:57;9.60;99.90
13682;DHT22;6913;49.892;7.936;2022-10-03T19:27:39;10.40;99.90
13682;DHT22;6913;49.892;7.936;2022-10-03T19:30:08;10.30;99.90
13682;DHT22;6913;49.892;7.936;2022-10-03T19:32:51;10.30;99.90
13682;DHT22;6913;49.892;7.936;2022-10-03T19:35:20;10.60;99.90
13682;DHT22;6913;49.892;7.936;2022-10-03T19:37:51;10.30;99.90
13682;DHT22;6913;49.892;7.936;2022-10-03T19:40:36;10.40;99.90
13682;DHT22;6913;49.892;7.936;2022-10-03T19:46:15;10.10;99.90
13682;DHT22;6913;49.892;7.936;2022-10-03T19:48:49;10.00;99.90
13682;DHT22;6913;49.892;7.936;2022-10-03T19:51:20;10.00;99.90
13682;DHT22;6913;49.892;7.936;2022-10-03T19:53:50;9.90;99.90
13682;DHT22;6913;49.892;7.936;2022-10-03T19:56:19;10.00;99.90
13682;DHT22;6913;49.892;7.936;2022-10-03T19:58:58;10.30;99.90
13682;DHT22;6913;49.892;7.936;2022-10-03T20:01:26;10.20;99.90
13682;DHT22;6913;49.892;7.936;2022-10-03T20:03:54;9.70;99.90
13682;DHT22;6913;49.892;7.936;2022-10-03T20:06:24;9.70;99.90
13682;DHT22;6913;49.892;7.936;2022-10-03T20:08:56;10.30;99.90
13682;DHT22;6913;49.892;7.936;2022-10-03T20:11:29;9.60;99.90
13682;DHT22;6913;49.892;7.936;2022-10-03T20:14:00;9.50;99.90
13682;DHT22;6913;49.892;7.936;2022-10-03T20:16:29;9.80;99.90
13682;DHT22;6913;49.892;7.936;2022-10-03T20:19:05;9.40;99.90
13682;DHT22;6913;49.892;7.936;2022-10-03T20:21:33;9.30;99.90